createdAt,value
2018-03-11T00:00:07.997Z,45.08
2018-03-11T00:02:37.037Z,45.60
2018-03-11T00:05:05.542Z,46.78
2018-03-11T00:07:33.829Z,47.74
2018-03-11T00:10:02.293Z,50.22
2018-03-11T00:12:30.679Z,50.59
2018-03-11T00:14:58.949Z,49.40
2018-03-11T00:17:27.315Z,50.03
2018-03-11T00:19:55.709Z,49.83
2018-03-11T00:22:24.174Z,48.61
2018-03-11T00:24:52.452Z,47.41
2018-03-11T00:27:21.066Z,46.80
2018-03-11T00:29:49.432Z,46.49
2018-03-11T00:32:17.804Z,47.16
2018-03-11T00:34:46.421Z,46.52
2018-03-11T00:37:14.758Z,46.96
2018-03-11T00:39:43.135Z,47.44
2018-03-11T00:42:11.309Z,47.56
2018-03-11T00:44:40.309Z,47.75
2018-03-11T00:47:08.686Z,47.30
2018-03-11T00:49:36.849Z,46.50
2018-03-11T00:52:05.342Z,48.08
2018-03-11T00:54:33.717Z,47.61
2018-03-11T00:57:03.220Z,47.99
2018-03-11T00:59:31.705Z,48.53
2018-03-11T01:02:00.287Z,48.71
2018-03-11T01:04:29.278Z,48.75
2018-03-11T01:06:57.657Z,48.30
2018-03-11T01:09:26.029Z,49.10
2018-03-11T01:11:54.404Z,48.73
2018-03-11T01:14:22.681Z,49.13
2018-03-11T01:16:51.269Z,48.97
2018-03-11T01:19:19.648Z,49.24
2018-03-11T01:21:47.823Z,48.56
2018-03-11T01:24:16.297Z,48.97
2018-03-11T01:26:44.971Z,49.01
2018-03-11T01:29:13.362Z,48.22
2018-03-11T01:31:41.741Z,49.39
2018-03-11T01:34:10.026Z,49.01
2018-03-11T01:36:38.397Z,49.59
2018-03-11T01:39:07.186Z,48.85
2018-03-11T01:41:35.457Z,49.26
2018-03-11T01:44:03.839Z,49.45
2018-03-11T01:46:32.033Z,49.23
2018-03-11T01:49:00.180Z,49.25
2018-03-11T01:51:28.362Z,48.83
2018-03-11T01:53:56.629Z,48.64
2018-03-11T01:56:24.770Z,49.17
2018-03-11T01:58:53.066Z,49.17
2018-03-11T02:01:21.661Z,49.74
2018-03-11T02:03:50.040Z,50.03
2018-03-11T02:06:18.726Z,50.16
2018-03-11T02:08:47.002Z,50.45
2018-03-11T02:11:15.382Z,53.66
2018-03-11T02:13:43.606Z,51.92
2018-03-11T02:16:12.128Z,50.76
2018-03-11T02:18:40.617Z,51.74
2018-03-11T02:21:14.561Z,51.97
2018-03-11T02:23:42.788Z,52.51
2018-03-11T02:26:11.277Z,51.35
2018-03-11T02:28:39.554Z,50.54
2018-03-11T02:31:08.039Z,50.34
2018-03-11T02:33:36.517Z,49.42
2018-03-11T02:36:04.788Z,49.75
2018-03-11T02:38:33.125Z,49.66
2018-03-11T02:41:02.158Z,49.63
2018-03-11T02:43:30.536Z,49.34
2018-03-11T02:45:59.122Z,49.60
2018-03-11T02:48:27.541Z,52.27
2018-03-11T02:50:55.669Z,51.32
2018-03-11T02:53:24.037Z,51.50
2018-03-11T02:55:52.427Z,50.31
2018-03-11T02:58:20.804Z,50.97
2018-03-11T03:00:49.377Z,51.47
2018-03-11T03:03:17.652Z,52.35
2018-03-11T03:05:46.043Z,53.45
2018-03-11T03:08:14.513Z,54.11
2018-03-11T03:10:42.901Z,55.74
2018-03-11T03:13:11.177Z,55.44
2018-03-11T03:15:39.658Z,53.23
2018-03-11T03:18:07.932Z,53.85
2018-03-11T03:20:36.304Z,53.30
2018-03-11T03:23:04.675Z,53.17
2018-03-11T03:25:33.070Z,53.44
2018-03-11T03:28:01.549Z,52.83
2018-03-11T03:30:29.819Z,52.38
2018-03-11T03:32:58.306Z,52.31
2018-03-11T03:35:26.520Z,52.61
2018-03-11T03:37:55.060Z,51.54
2018-03-11T03:40:23.383Z,51.92
2018-03-11T03:42:51.709Z,52.13
2018-03-11T03:45:20.075Z,52.35
2018-03-11T03:47:48.557Z,52.38
2018-03-11T03:50:17.254Z,54.27
2018-03-11T03:52:45.731Z,53.01
2018-03-11T03:55:13.840Z,52.54
2018-03-11T03:57:42.287Z,52.21
2018-03-11T04:00:10.568Z,52.24
2018-03-11T04:02:38.837Z,51.92
2018-03-11T04:05:07.040Z,53.09
2018-03-11T04:07:35.285Z,54.82
2018-03-11T04:10:03.657Z,55.19
2018-03-11T04:12:32.040Z,52.74
2018-03-11T04:15:00.409Z,51.97
2018-03-11T04:17:28.618Z,51.83
2018-03-11T04:19:56.857Z,50.56
2018-03-11T04:22:25.145Z,50.83
2018-03-11T04:24:53.629Z,50.52
2018-03-11T04:27:22.253Z,51.03
2018-03-11T04:29:50.589Z,51.11
2018-03-11T04:32:19.071Z,50.88
2018-03-11T04:34:47.345Z,50.95
2018-03-11T04:37:15.617Z,50.86
2018-03-11T04:39:44.096Z,50.42
2018-03-11T04:42:12.477Z,50.30
2018-03-11T04:44:40.958Z,50.46
2018-03-11T04:47:09.184Z,50.52
2018-03-11T04:49:37.912Z,50.53
2018-03-11T04:52:06.401Z,50.17
2018-03-11T04:54:34.876Z,50.23
2018-03-11T04:57:03.172Z,49.75
2018-03-11T04:59:31.335Z,49.67
2018-03-11T05:01:59.506Z,49.50
2018-03-11T05:04:27.882Z,52.66
2018-03-11T05:06:56.054Z,51.19
2018-03-11T05:09:24.283Z,50.09
2018-03-11T05:11:53.014Z,50.09
2018-03-11T05:14:21.806Z,49.75
2018-03-11T05:16:50.201Z,49.79
2018-03-11T05:19:18.545Z,52.25
2018-03-11T05:21:47.240Z,51.58
2018-03-11T05:24:15.553Z,51.34
2018-03-11T05:26:43.904Z,50.75
2018-03-11T05:29:12.481Z,49.99
2018-03-11T05:31:40.743Z,49.97
2018-03-11T05:34:09.233Z,49.20
2018-03-11T05:36:37.495Z,48.98
2018-03-11T05:39:05.888Z,48.63
2018-03-11T05:41:34.374Z,49.28
2018-03-11T05:44:02.749Z,49.77
2018-03-11T05:46:31.132Z,59.55
2018-03-11T05:48:59.121Z,54.54
2018-03-11T05:51:27.097Z,60.68
2018-03-11T05:53:55.056Z,50.95
2018-03-11T05:56:23.032Z,56.18
2018-03-11T05:58:51.054Z,47.81
2018-03-11T06:01:18.983Z,56.03
2018-03-11T06:03:46.987Z,56.20
2018-03-11T06:06:15.025Z,47.69
2018-03-11T06:08:43.054Z,51.47
2018-03-11T06:11:11.107Z,48.33
2018-03-11T06:13:39.229Z,51.26
2018-03-11T06:16:07.469Z,51.12
2018-03-11T06:18:35.633Z,50.34
2018-03-11T06:21:05.229Z,51.58
2018-03-11T06:23:33.905Z,53.60
2018-03-11T06:26:02.204Z,51.70
2018-03-11T06:28:30.578Z,49.85
2018-03-11T06:30:58.859Z,48.70
2018-03-11T06:33:27.034Z,48.57
2018-03-11T06:35:55.408Z,47.80
2018-03-11T06:38:23.887Z,44.64
2018-03-11T06:40:52.081Z,42.93
2018-03-11T06:43:20.650Z,42.27
2018-03-11T06:45:49.030Z,38.77
2018-03-11T06:48:17.612Z,38.83
2018-03-11T06:50:45.989Z,38.08
2018-03-11T06:53:14.452Z,38.13
2018-03-11T06:55:42.954Z,37.42
2018-03-11T06:58:11.533Z,38.15
2018-03-11T07:00:40.221Z,38.19
2018-03-11T07:03:08.494Z,36.96
2018-03-11T07:05:37.084Z,35.69
2018-03-11T07:08:05.530Z,35.75
2018-03-11T07:10:33.924Z,35.95
2018-03-11T07:13:01.926Z,33.94
2018-03-11T07:15:30.506Z,33.29
2018-03-11T07:17:59.783Z,34.45
2018-03-11T07:20:27.712Z,33.27
2018-03-11T07:22:55.635Z,32.72
2018-03-11T07:25:23.505Z,32.34
2018-03-11T07:27:51.765Z,32.18
2018-03-11T07:30:20.270Z,31.26
2018-03-11T07:32:48.109Z,32.03
2018-03-11T07:35:16.033Z,33.05
2018-03-11T07:37:43.877Z,31.83
2018-03-11T07:40:11.845Z,31.30
2018-03-11T07:42:39.722Z,30.87
2018-03-11T07:45:07.682Z,30.06
2018-03-11T07:47:35.593Z,29.65
2018-03-11T07:50:03.594Z,29.35
2018-03-11T07:52:31.669Z,28.60
2018-03-11T07:54:59.585Z,27.34
2018-03-11T07:57:27.552Z,29.49
2018-03-11T07:59:55.498Z,28.93
2018-03-11T08:02:23.522Z,27.25
2018-03-11T08:04:51.463Z,28.57
2018-03-11T08:07:19.473Z,28.94
2018-03-11T08:09:47.421Z,28.20
2018-03-11T08:12:15.365Z,28.06
2018-03-11T08:14:43.400Z,27.74
2018-03-11T08:17:11.640Z,25.49
2018-03-11T08:19:39.618Z,25.92
2018-03-11T08:22:07.590Z,25.75
2018-03-11T08:24:35.504Z,23.95
2018-03-11T08:27:03.440Z,24.76
2018-03-11T08:29:31.372Z,24.85
2018-03-11T08:31:59.341Z,23.29
2018-03-11T08:34:27.281Z,22.56
2018-03-11T08:36:55.176Z,23.19
2018-03-11T08:39:23.127Z,23.06
2018-03-11T08:41:51.015Z,24.64
2018-03-11T08:44:18.953Z,25.25
2018-03-11T08:46:46.934Z,25.24
2018-03-11T08:49:14.918Z,23.71
2018-03-11T08:51:42.883Z,23.76
2018-03-11T08:54:10.786Z,24.06
2018-03-11T08:56:38.694Z,24.20
2018-03-11T08:59:06.681Z,23.27
2018-03-11T09:01:34.668Z,23.27
2018-03-11T09:04:02.653Z,21.47
2018-03-11T09:06:30.578Z,24.12
2018-03-11T09:08:58.532Z,23.25
2018-03-11T09:11:26.464Z,22.85
2018-03-11T09:13:54.362Z,20.85
2018-03-11T09:16:22.348Z,21.83
2018-03-11T09:18:50.672Z,21.57
2018-03-11T09:21:18.557Z,21.16
2018-03-11T09:23:46.478Z,20.29
2018-03-11T09:26:14.422Z,19.49
2018-03-11T09:28:42.358Z,19.24
2018-03-11T09:31:10.313Z,20.11
2018-03-11T09:33:42.389Z,17.68
2018-03-11T09:36:10.365Z,17.19
2018-03-11T09:38:38.333Z,15.19
2018-03-11T09:41:06.378Z,15.46
2018-03-11T09:43:34.369Z,16.39
2018-03-11T09:46:02.305Z,17.52
2018-03-11T09:48:30.205Z,18.41
2018-03-11T09:50:58.725Z,17.36
2018-03-11T09:53:26.657Z,18.61
2018-03-11T09:55:54.583Z,18.86
2018-03-11T09:58:22.515Z,16.61
2018-03-11T10:00:50.586Z,17.59
2018-03-11T10:03:18.545Z,18.43
2018-03-11T10:05:46.485Z,17.79
2018-03-11T10:08:14.452Z,16.93
2018-03-11T10:10:42.383Z,16.69
2018-03-11T10:13:10.309Z,18.82
2018-03-11T10:15:38.278Z,17.09
2018-03-11T10:18:06.237Z,16.94
2018-03-11T10:20:34.660Z,16.45
2018-03-11T10:23:02.631Z,15.83
2018-03-11T10:25:30.594Z,16.00
2018-03-11T10:27:58.625Z,16.25
2018-03-11T10:30:26.574Z,16.65
2018-03-11T10:32:54.479Z,17.34
2018-03-11T10:35:22.372Z,16.62
2018-03-11T10:37:50.321Z,15.46
2018-03-11T10:40:18.317Z,13.16
2018-03-11T10:42:46.241Z,15.03
2018-03-11T10:45:14.262Z,14.27
2018-03-11T10:47:42.236Z,14.31
2018-03-11T10:50:10.185Z,15.56
2018-03-11T10:52:38.157Z,15.81
2018-03-11T10:55:06.119Z,15.34
2018-03-11T10:57:34.064Z,16.22
2018-03-11T11:00:02.005Z,14.15
2018-03-11T11:02:35.349Z,13.60
2018-03-11T11:05:03.326Z,14.33
2018-03-11T11:07:31.188Z,14.68
2018-03-11T11:09:59.101Z,13.95
2018-03-11T11:12:27.135Z,14.26
2018-03-11T11:14:55.089Z,14.69
2018-03-11T11:17:23.053Z,14.99
2018-03-11T11:19:51.009Z,13.51
2018-03-11T11:22:19.502Z,15.58
2018-03-11T11:24:47.528Z,13.78
2018-03-11T11:27:15.466Z,14.49
2018-03-11T11:29:43.470Z,14.08
2018-03-11T11:32:11.392Z,13.74
2018-03-11T11:34:39.364Z,14.02
2018-03-11T11:37:07.291Z,14.06
2018-03-11T11:39:35.221Z,13.98
2018-03-11T11:42:03.121Z,13.91
2018-03-11T11:44:31.081Z,14.60
2018-03-11T11:46:59.007Z,14.34
2018-03-11T11:49:26.942Z,13.49
2018-03-11T11:51:54.949Z,14.29
2018-03-11T11:54:22.887Z,13.32
2018-03-11T11:56:50.876Z,13.22
2018-03-11T11:59:18.830Z,14.21
2018-03-11T12:01:46.733Z,14.36
2018-03-11T12:04:14.716Z,15.98
2018-03-11T12:06:42.625Z,14.74
2018-03-11T12:09:10.619Z,13.57
2018-03-11T12:11:38.534Z,12.43
2018-03-11T12:14:06.480Z,13.61
2018-03-11T12:16:34.429Z,13.24
2018-03-11T12:19:02.399Z,13.03
2018-03-11T12:21:30.286Z,12.75
2018-03-11T12:23:58.741Z,13.30
2018-03-11T12:26:26.657Z,12.98
2018-03-11T12:28:54.584Z,12.67
2018-03-11T12:31:22.493Z,12.62
2018-03-11T12:33:50.486Z,12.75
2018-03-11T12:36:18.498Z,12.38
2018-03-11T12:38:46.483Z,13.10
2018-03-11T12:41:14.325Z,14.13
2018-03-11T12:43:42.295Z,14.24
2018-03-11T12:46:10.283Z,13.32
2018-03-11T12:48:38.275Z,14.46
2018-03-11T12:51:06.249Z,12.91
2018-03-11T12:53:34.186Z,12.06
2018-03-11T12:56:02.228Z,12.38
2018-03-11T12:58:29.998Z,11.38
2018-03-11T13:00:58.005Z,11.94
2018-03-11T13:03:25.955Z,11.13
2018-03-11T13:05:53.885Z,11.35
2018-03-11T13:08:21.813Z,12.82
2018-03-11T13:10:49.690Z,13.88
2018-03-11T13:13:17.552Z,12.65
2018-03-11T13:15:45.491Z,13.07
2018-03-11T13:18:13.498Z,12.80
2018-03-11T13:20:53.244Z,13.63
2018-03-11T13:23:21.253Z,13.13
2018-03-11T13:25:49.537Z,12.77
2018-03-11T13:28:29.187Z,12.54
2018-03-11T13:30:57.113Z,11.97
2018-03-11T13:33:36.865Z,11.61
2018-03-11T13:36:05.988Z,12.16
2018-03-11T13:38:45.764Z,10.25
2018-03-11T13:41:13.849Z,11.04
2018-03-11T13:43:41.797Z,10.67
2018-03-11T13:46:22.617Z,10.26
2018-03-11T13:48:50.642Z,10.99
2018-03-11T13:51:30.541Z,11.89
2018-03-11T13:53:58.558Z,12.38
2018-03-11T13:56:26.835Z,12.42
2018-03-11T13:58:54.800Z,12.33
2018-03-11T14:01:22.782Z,13.05
2018-03-11T14:03:50.725Z,13.37
2018-03-11T14:06:18.617Z,12.63
2018-03-11T14:08:46.485Z,13.21
2018-03-11T14:11:14.410Z,13.20
2018-03-11T14:13:42.430Z,12.99
2018-03-11T14:16:10.367Z,13.05
2018-03-11T14:18:38.329Z,14.40
2018-03-11T14:21:06.295Z,13.16
2018-03-11T14:23:34.316Z,14.11
2018-03-11T14:26:02.571Z,13.95
2018-03-11T14:28:30.580Z,14.01
2018-03-11T14:30:58.610Z,14.65
2018-03-11T14:33:26.604Z,14.50
2018-03-11T14:35:54.563Z,13.97
2018-03-11T14:38:22.581Z,13.76
2018-03-11T14:40:50.516Z,14.93
2018-03-11T14:43:18.438Z,13.92
2018-03-11T14:45:46.379Z,14.87
2018-03-11T14:48:14.314Z,14.56
2018-03-11T14:50:42.338Z,14.70
2018-03-11T14:53:10.302Z,14.72
2018-03-11T14:55:38.232Z,15.25
2018-03-11T14:58:06.156Z,15.52
2018-03-11T15:00:34.070Z,15.44
2018-03-11T15:03:02.054Z,15.46
2018-03-11T15:05:30.019Z,15.84
2018-03-11T15:07:57.987Z,15.67
2018-03-11T15:10:25.972Z,16.16
2018-03-11T15:12:53.891Z,16.75
2018-03-11T15:15:21.810Z,16.71
2018-03-11T15:17:49.776Z,16.82
2018-03-11T15:20:17.733Z,17.80
2018-03-11T15:22:45.676Z,16.77
2018-03-11T15:25:13.658Z,16.14
2018-03-11T15:27:42.032Z,16.74
2018-03-11T15:30:10.018Z,16.80
2018-03-11T15:32:37.976Z,18.16
2018-03-11T15:35:05.908Z,18.49
2018-03-11T15:37:33.830Z,19.10
2018-03-11T15:40:01.794Z,19.00
2018-03-11T15:42:29.735Z,20.02
2018-03-11T15:44:57.684Z,20.19
2018-03-11T15:47:25.559Z,20.75
2018-03-11T15:49:53.588Z,21.81
2018-03-11T15:52:21.537Z,21.56
2018-03-11T15:54:49.518Z,21.20
2018-03-11T15:57:17.503Z,21.22
2018-03-11T15:59:45.469Z,22.39
2018-03-11T16:02:13.530Z,22.42
2018-03-11T16:04:42.412Z,23.26
2018-03-11T16:07:10.383Z,23.76
2018-03-11T16:09:38.309Z,23.40
2018-03-11T16:12:06.329Z,24.24
2018-03-11T16:14:35.666Z,25.10
2018-03-11T16:17:03.696Z,25.20
2018-03-11T16:19:31.690Z,25.63
2018-03-11T16:21:59.592Z,26.59
2018-03-11T16:24:28.824Z,27.26
2018-03-11T16:26:55.604Z,28.77
2018-03-11T16:29:23.790Z,29.11
2018-03-11T16:31:52.803Z,29.84
2018-03-11T16:34:20.715Z,29.79
2018-03-11T16:36:48.735Z,30.41
2018-03-11T16:39:16.717Z,30.24
2018-03-11T16:41:44.637Z,31.32
2018-03-11T16:44:12.597Z,31.38
2018-03-11T16:46:40.509Z,34.84
2018-03-11T16:49:08.515Z,36.82
2018-03-11T16:51:36.471Z,35.80
2018-03-11T16:54:04.422Z,35.34
2018-03-11T16:56:32.457Z,36.04
2018-03-11T16:59:00.401Z,36.00
2018-03-11T17:01:28.355Z,35.52
2018-03-11T17:03:56.360Z,34.39
2018-03-11T17:06:24.305Z,34.58
2018-03-11T17:08:52.277Z,34.12
2018-03-11T17:11:20.254Z,34.93
2018-03-11T17:13:48.177Z,33.94
2018-03-11T17:16:16.096Z,33.94
2018-03-11T17:18:44.047Z,34.37
2018-03-11T17:21:12.010Z,35.90
2018-03-11T17:23:40.042Z,35.13
2018-03-11T17:26:08.143Z,35.07
2018-03-11T17:28:36.072Z,36.21
2018-03-11T17:31:04.501Z,35.61
2018-03-11T17:33:32.481Z,38.22
2018-03-11T17:36:00.422Z,37.94
2018-03-11T17:38:28.393Z,37.78
2018-03-11T17:40:56.331Z,36.87
2018-03-11T17:43:24.271Z,37.56
2018-03-11T17:45:52.280Z,38.24
2018-03-11T17:48:20.244Z,37.13
2018-03-11T17:50:48.184Z,36.66
2018-03-11T17:53:16.183Z,37.03
2018-03-11T17:55:44.081Z,37.50
2018-03-11T17:58:11.999Z,36.15
2018-03-11T18:00:39.992Z,36.31
2018-03-11T18:03:08.048Z,36.79
2018-03-11T18:05:35.885Z,37.00
2018-03-11T18:08:03.926Z,36.70
2018-03-11T18:10:31.865Z,36.71
2018-03-11T18:12:59.820Z,38.45
2018-03-11T18:15:27.823Z,38.11
2018-03-11T18:17:56.211Z,38.09
2018-03-11T18:20:24.488Z,36.94
2018-03-11T18:22:53.164Z,36.40
2018-03-11T18:25:21.278Z,36.51
2018-03-11T18:27:49.517Z,37.76
2018-03-11T18:30:17.696Z,37.76
2018-03-11T18:32:46.274Z,37.09
2018-03-11T18:35:14.572Z,38.58
2018-03-11T18:37:42.944Z,38.64
2018-03-11T18:40:11.297Z,37.82
2018-03-11T18:42:39.577Z,38.87
2018-03-11T18:45:08.146Z,37.86
2018-03-11T18:47:36.451Z,36.89
2018-03-11T18:50:05.012Z,37.20
2018-03-11T18:52:33.039Z,37.76
2018-03-11T18:55:01.365Z,39.79
2018-03-11T18:57:29.573Z,37.93
2018-03-11T18:59:58.008Z,40.19
2018-03-11T19:02:26.601Z,38.52
2018-03-11T19:04:55.081Z,38.40
2018-03-11T19:07:23.765Z,41.47
2018-03-11T19:09:52.231Z,40.07
2018-03-11T19:12:20.724Z,41.25
2018-03-11T19:14:49.210Z,40.56
2018-03-11T19:17:17.483Z,40.38
2018-03-11T19:19:45.863Z,39.38
2018-03-11T19:22:14.007Z,39.15
2018-03-11T19:24:42.409Z,39.38
2018-03-11T19:27:10.999Z,39.55
2018-03-11T19:29:39.269Z,39.35
2018-03-11T19:32:07.958Z,39.16
2018-03-11T19:34:36.536Z,39.66
2018-03-11T19:37:05.061Z,39.11
2018-03-11T19:39:33.404Z,39.69
2018-03-11T19:42:01.977Z,40.34
2018-03-11T19:44:30.250Z,40.77
2018-03-11T19:46:58.737Z,41.10
2018-03-11T19:49:26.986Z,41.40
2018-03-11T19:51:55.185Z,41.89
2018-03-11T19:54:23.373Z,42.66
2018-03-11T19:56:51.842Z,42.73
2018-03-11T19:59:20.279Z,42.47
2018-03-11T20:01:48.931Z,43.11
2018-03-11T20:04:17.313Z,43.19
2018-03-11T20:06:45.707Z,43.11
2018-03-11T20:09:14.138Z,43.26
2018-03-11T20:11:42.620Z,42.65
2018-03-11T20:14:11.098Z,44.81
2018-03-11T20:16:39.681Z,44.91
2018-03-11T20:19:07.931Z,45.19
2018-03-11T20:21:36.239Z,44.22
2018-03-11T20:24:04.601Z,44.91
2018-03-11T20:26:32.980Z,42.36
2018-03-11T20:29:01.158Z,42.30
2018-03-11T20:31:29.328Z,43.36
2018-03-11T20:33:57.662Z,42.78
2018-03-11T20:36:25.985Z,42.55
2018-03-11T20:38:54.246Z,41.99
2018-03-11T20:41:22.933Z,42.38
2018-03-11T20:43:51.226Z,44.37
2018-03-11T20:46:19.713Z,44.95
2018-03-11T20:48:48.389Z,43.83
2018-03-11T20:51:16.668Z,42.71
2018-03-11T20:53:45.042Z,43.21
2018-03-11T20:56:13.529Z,42.41
2018-03-11T20:58:42.002Z,41.20
2018-03-11T21:01:10.487Z,41.41
2018-03-11T21:03:39.168Z,41.17
2018-03-11T21:06:07.547Z,41.69
2018-03-11T21:08:36.001Z,42.05
2018-03-11T21:11:04.500Z,41.76
2018-03-11T21:13:33.196Z,41.73
2018-03-11T21:16:01.461Z,41.65
2018-03-11T21:18:30.049Z,41.89
2018-03-11T21:20:58.265Z,42.15
2018-03-11T21:23:26.700Z,42.34
2018-03-11T21:25:55.185Z,42.74
2018-03-11T21:28:23.452Z,42.86
2018-03-11T21:30:51.740Z,42.79
2018-03-11T21:33:20.005Z,42.58
2018-03-11T21:35:48.387Z,45.34
2018-03-11T21:38:17.026Z,43.53
2018-03-11T21:40:45.458Z,42.58
2018-03-11T21:43:13.829Z,42.86
2018-03-11T21:45:42.121Z,44.75
2018-03-11T21:48:10.793Z,44.05
2018-03-11T21:50:39.244Z,44.03
2018-03-11T21:53:07.755Z,44.43
2018-03-11T21:55:36.005Z,46.44
2018-03-11T21:58:04.709Z,44.54
2018-03-11T22:00:33.188Z,43.43
2018-03-11T22:03:01.461Z,47.98
2018-03-11T22:05:29.950Z,48.45
2018-03-11T22:07:58.326Z,48.21
2018-03-11T22:10:26.710Z,47.61
2018-03-11T22:12:54.877Z,48.71
2018-03-11T22:15:23.262Z,47.30
2018-03-11T22:17:51.633Z,45.60
2018-03-11T22:20:20.131Z,45.00
2018-03-11T22:22:48.601Z,44.60
2018-03-11T22:25:16.984Z,43.87
2018-03-11T22:27:45.349Z,43.85
2018-03-11T22:30:13.521Z,43.85
2018-03-11T22:32:42.108Z,44.75
2018-03-11T22:35:10.688Z,43.79
2018-03-11T22:37:39.051Z,43.44
2018-03-11T22:40:07.749Z,44.18
2018-03-11T22:42:36.578Z,44.09
2018-03-11T22:45:05.237Z,44.64
2018-03-11T22:47:33.418Z,44.53
2018-03-11T22:50:01.780Z,45.61
2018-03-11T22:52:29.898Z,45.94
2018-03-11T22:54:58.188Z,46.48
2018-03-11T22:57:26.718Z,45.84
2018-03-11T22:59:55.290Z,44.59
2018-03-11T23:02:23.856Z,44.68
2018-03-11T23:04:52.454Z,44.91
2018-03-11T23:07:21.031Z,45.64
2018-03-11T23:09:49.620Z,45.92
2018-03-11T23:12:17.894Z,45.88
2018-03-11T23:14:46.276Z,46.31
2018-03-11T23:17:14.546Z,46.63
2018-03-11T23:19:43.024Z,46.20
2018-03-11T23:22:11.446Z,46.19
2018-03-11T23:24:39.786Z,46.41
2018-03-11T23:27:08.171Z,46.80
2018-03-11T23:29:36.544Z,46.71
2018-03-11T23:32:04.817Z,46.76
2018-03-11T23:34:33.107Z,48.33
2018-03-11T23:37:01.679Z,47.33
2018-03-11T23:39:29.949Z,46.42
2018-03-11T23:41:58.337Z,46.68
2018-03-11T23:44:26.502Z,46.84
2018-03-11T23:46:54.916Z,47.23
2018-03-11T23:49:23.256Z,47.14
2018-03-11T23:51:51.942Z,47.34
2018-03-11T23:54:20.109Z,48.91
2018-03-11T23:56:48.589Z,48.19
2018-03-11T23:59:16.661Z,47.59
